sensor_id;sensor_type;location;lat;lon;timestamp;P1;durP1;ratioP1;P2;durP2;ratioP2
71955;SDS011;59829;50.562;6.258;2023-06-14T00:06:31;4.07;;;2.55;;
71955;SDS011;59829;50.562;6.258;2023-06-14T00:16:33;4.50;;;2.80;;
71955;SDS011;59829;50.562;6.258;2023-06-14T00:26:35;5.57;;;2.85;;
71955;SDS011;59829;50.562;6.258;2023-06-14T00:36:35;4.75;;;2.70;;
71955;SDS011;59829;50.562;6.258;2023-06-14T00:46:35;5.05;;;2.88;;
71955;SDS011;59829;50.562;6.258;2023-06-14T00:56:36;5.05;;;2.67;;
71955;SDS011;59829;50.562;6.258;2023-06-14T01:06:49;4.90;;;3.10;;
71955;SDS011;59829;50.562;6.258;2023-06-14T01:17:14;4.28;;;2.80;;
71955;SDS011;59829;50.562;6.258;2023-06-14T01:37:19;7.03;;;3.38;;
71955;SDS011;59829;50.562;6.258;2023-06-14T01:47:21;5.63;;;3.05;;
71955;SDS011;59829;50.562;6.258;2023-06-14T01:57:22;4.90;;;2.88;;
71955;SDS011;59829;50.562;6.258;2023-06-14T02:07:23;5.78;;;3.20;;
71955;SDS011;59829;50.562;6.258;2023-06-14T02:17:24;5.28;;;2.92;;
71955;SDS011;59829;50.562;6.258;2023-06-14T02:27:24;5.68;;;2.95;;
71955;SDS011;59829;50.562;6.258;2023-06-14T02:37:25;5.88;;;2.92;;
71955;SDS011;59829;50.562;6.258;2023-06-14T02:47:25;4.88;;;2.90;;
71955;SDS011;59829;50.562;6.258;2023-06-14T02:57:26;5.72;;;3.30;;
71955;SDS011;59829;50.562;6.258;2023-06-14T03:07:26;7.47;;;3.42;;
71955;SDS011;59829;50.562;6.258;2023-06-14T03:17:27;6.63;;;3.53;;
71955;SDS011;59829;50.562;6.258;2023-06-14T03:27:30;4.90;;;3.00;;
71955;SDS011;59829;50.562;6.258;2023-06-14T03:37:30;5.75;;;3.25;;
71955;SDS011;59829;50.562;6.258;2023-06-14T03:47:30;5.93;;;3.53;;
71955;SDS011;59829;50.562;6.258;2023-06-14T03:57:30;5.90;;;3.20;;
71955;SDS011;59829;50.562;6.258;2023-06-14T04:07:31;5.75;;;3.40;;
71955;SDS011;59829;50.562;6.258;2023-06-14T04:17:32;5.25;;;3.17;;
71955;SDS011;59829;50.562;6.258;2023-06-14T04:27:35;4.70;;;2.97;;
71955;SDS011;59829;50.562;6.258;2023-06-14T04:37:36;6.70;;;3.53;;
71955;SDS011;59829;50.562;6.258;2023-06-14T04:47:41;5.35;;;3.50;;
71955;SDS011;59829;50.562;6.258;2023-06-14T04:57:42;5.82;;;3.40;;
71955;SDS011;59829;50.562;6.258;2023-06-14T05:07:42;5.73;;;3.37;;
71955;SDS011;59829;50.562;6.258;2023-06-14T05:17:44;7.22;;;3.20;;
71955;SDS011;59829;50.562;6.258;2023-06-14T05:27:53;4.70;;;2.80;;
71955;SDS011;59829;50.562;6.258;2023-06-14T05:37:53;6.88;;;3.15;;
71955;SDS011;59829;50.562;6.258;2023-06-14T05:47:53;7.85;;;3.00;;
71955;SDS011;59829;50.562;6.258;2023-06-14T05:57:54;5.53;;;2.88;;
71955;SDS011;59829;50.562;6.258;2023-06-14T06:07:54;4.70;;;2.30;;
71955;SDS011;59829;50.562;6.258;2023-06-14T06:17:55;3.45;;;2.22;;
71955;SDS011;59829;50.562;6.258;2023-06-14T06:27:56;3.30;;;2.03;;
71955;SDS011;59829;50.562;6.258;2023-06-14T06:37:57;5.63;;;1.98;;
71955;SDS011;59829;50.562;6.258;2023-06-14T06:47:57;2.75;;;1.90;;
71955;SDS011;59829;50.562;6.258;2023-06-14T06:57:57;7.00;;;1.73;;
71955;SDS011;59829;50.562;6.258;2023-06-14T07:07:59;4.10;;;2.10;;
71955;SDS011;59829;50.562;6.258;2023-06-14T07:18:00;3.03;;;2.00;;
71955;SDS011;59829;50.562;6.258;2023-06-14T07:28:00;4.05;;;2.05;;
71955;SDS011;59829;50.562;6.258;2023-06-14T07:38:01;2.92;;;1.92;;
71955;SDS011;59829;50.562;6.258;2023-06-14T07:48:01;4.15;;;2.00;;
71955;SDS011;59829;50.562;6.258;2023-06-14T07:58:02;3.28;;;2.03;;
71955;SDS011;59829;50.562;6.258;2023-06-14T08:18:04;3.95;;;2.13;;
71955;SDS011;59829;50.562;6.258;2023-06-14T08:28:04;5.03;;;2.20;;
71955;SDS011;59829;50.562;6.258;2023-06-14T08:38:05;3.17;;;1.92;;
71955;SDS011;59829;50.562;6.258;2023-06-14T08:48:06;3.85;;;2.20;;
71955;SDS011;59829;50.562;6.258;2023-06-14T08:58:07;3.95;;;2.10;;
71955;SDS011;59829;50.562;6.258;2023-06-14T09:08:09;3.07;;;1.73;;
71955;SDS011;59829;50.562;6.258;2023-06-14T09:18:10;2.90;;;2.00;;
71955;SDS011;59829;50.562;6.258;2023-06-14T09:28:11;2.70;;;1.75;;
71955;SDS011;59829;50.562;6.258;2023-06-14T09:38:11;3.22;;;1.70;;
71955;SDS011;59829;50.562;6.258;2023-06-14T09:48:11;2.47;;;1.55;;
71955;SDS011;59829;50.562;6.258;2023-06-14T09:58:17;2.88;;;1.42;;
71955;SDS011;59829;50.562;6.258;2023-06-14T10:08:23;2.15;;;1.52;;
71955;SDS011;59829;50.562;6.258;2023-06-14T10:18:48;4.22;;;1.92;;
71955;SDS011;59829;50.562;6.258;2023-06-14T10:29:08;1.58;;;1.10;;
71955;SDS011;59829;50.562;6.258;2023-06-14T10:39:18;2.17;;;1.40;;
71955;SDS011;59829;50.562;6.258;2023-06-14T10:49:19;1.90;;;1.05;;
71955;SDS011;59829;50.562;6.258;2023-06-14T10:59:35;1.95;;;1.10;;
71955;SDS011;59829;50.562;6.258;2023-06-14T11:09:51;2.60;;;1.10;;
71955;SDS011;59829;50.562;6.258;2023-06-14T11:20:12;1.83;;;1.20;;
71955;SDS011;59829;50.562;6.258;2023-06-14T11:30:16;2.60;;;1.30;;
71955;SDS011;59829;50.562;6.258;2023-06-14T11:40:17;1.98;;;1.20;;
71955;SDS011;59829;50.562;6.258;2023-06-14T11:50:17;1.20;;;0.90;;
71955;SDS011;59829;50.562;6.258;2023-06-14T12:00:18;1.23;;;0.90;;
71955;SDS011;59829;50.562;6.258;2023-06-14T12:10:18;0.98;;;0.68;;
71955;SDS011;59829;50.562;6.258;2023-06-14T12:20:19;2.00;;;1.20;;
71955;SDS011;59829;50.562;6.258;2023-06-14T12:30:21;1.20;;;0.90;;
71955;SDS011;59829;50.562;6.258;2023-06-14T12:40:22;1.10;;;0.90;;
71955;SDS011;59829;50.562;6.258;2023-06-14T12:50:23;2.55;;;0.90;;
71955;SDS011;59829;50.562;6.258;2023-06-14T13:00:23;1.80;;;0.88;;
71955;SDS011;59829;50.562;6.258;2023-06-14T13:10:25;1.42;;;1.00;;
71955;SDS011;59829;50.562;6.258;2023-06-14T13:20:26;1.00;;;0.90;;
71955;SDS011;59829;50.562;6.258;2023-06-14T13:30:26;1.25;;;0.90;;
71955;SDS011;59829;50.562;6.258;2023-06-14T13:40:26;1.38;;;0.80;;
71955;SDS011;59829;50.562;6.258;2023-06-14T13:50:27;1.10;;;0.77;;
71955;SDS011;59829;50.562;6.258;2023-06-14T14:00:27;1.80;;;0.85;;
71955;SDS011;59829;50.562;6.258;2023-06-14T14:10:28;1.45;;;0.98;;
71955;SDS011;59829;50.562;6.258;2023-06-14T14:20:29;0.85;;;0.68;;
71955;SDS011;59829;50.562;6.258;2023-06-14T14:30:30;3.00;;;0.80;;
71955;SDS011;59829;50.562;6.258;2023-06-14T14:40:31;1.42;;;0.95;;
71955;SDS011;59829;50.562;6.258;2023-06-14T14:50:31;1.60;;;0.93;;
71955;SDS011;59829;50.562;6.258;2023-06-14T15:00:33;1.40;;;0.90;;
71955;SDS011;59829;50.562;6.258;2023-06-14T15:10:33;1.25;;;0.70;;
71955;SDS011;59829;50.562;6.258;2023-06-14T15:20:33;1.83;;;0.77;;
71955;SDS011;59829;50.562;6.258;2023-06-14T15:30:33;1.10;;;0.90;;
71955;SDS011;59829;50.562;6.258;2023-06-14T15:40:34;1.05;;;0.70;;
71955;SDS011;59829;50.562;6.258;2023-06-14T15:50:34;1.30;;;0.82;;
71955;SDS011;59829;50.562;6.258;2023-06-14T16:00:36;1.15;;;0.80;;
71955;SDS011;59829;50.562;6.258;2023-06-14T16:10:36;0.65;;;0.60;;
71955;SDS011;59829;50.562;6.258;2023-06-14T16:20:36;1.50;;;0.80;;
71955;SDS011;59829;50.562;6.258;2023-06-14T16:30:37;0.80;;;0.70;;
71955;SDS011;59829;50.562;6.258;2023-06-14T16:40:37;1.92;;;1.25;;
71955;SDS011;59829;50.562;6.258;2023-06-14T16:50:37;4.13;;;1.23;;
71955;SDS011;59829;50.562;6.258;2023-06-14T17:00:38;1.10;;;1.00;;
71955;SDS011;59829;50.562;6.258;2023-06-14T17:10:38;1.40;;;1.00;;
71955;SDS011;59829;50.562;6.258;2023-06-14T17:20:38;1.83;;;0.90;;
71955;SDS011;59829;50.562;6.258;2023-06-14T17:30:39;1.13;;;0.80;;
71955;SDS011;59829;50.562;6.258;2023-06-14T17:40:39;1.70;;;0.90;;
71955;SDS011;59829;50.562;6.258;2023-06-14T17:50:40;3.88;;;0.98;;
71955;SDS011;59829;50.562;6.258;2023-06-14T18:00:40;1.17;;;1.02;;
71955;SDS011;59829;50.562;6.258;2023-06-14T18:10:41;1.20;;;1.10;;
71955;SDS011;59829;50.562;6.258;2023-06-14T18:20:41;2.00;;;1.10;;
71955;SDS011;59829;50.562;6.258;2023-06-14T18:30:42;1.20;;;1.10;;
71955;SDS011;59829;50.562;6.258;2023-06-14T18:40:42;1.35;;;1.10;;
71955;SDS011;59829;50.562;6.258;2023-06-14T18:50:42;1.90;;;1.10;;
71955;SDS011;59829;50.562;6.258;2023-06-14T19:00:44;1.20;;;0.90;;
71955;SDS011;59829;50.562;6.258;2023-06-14T19:10:46;1.23;;;0.95;;
71955;SDS011;59829;50.562;6.258;2023-06-14T19:20:46;1.42;;;1.00;;
71955;SDS011;59829;50.562;6.258;2023-06-14T19:30:46;1.27;;;1.00;;
71955;SDS011;59829;50.562;6.258;2023-06-14T19:40:47;1.27;;;1.00;;
71955;SDS011;59829;50.562;6.258;2023-06-14T19:50:47;1.55;;;1.00;;
71955;SDS011;59829;50.562;6.258;2023-06-14T20:10:50;1.65;;;1.00;;
71955;SDS011;59829;50.562;6.258;2023-06-14T20:20:51;1.98;;;1.27;;
71955;SDS011;59829;50.562;6.258;2023-06-14T20:30:51;1.83;;;1.27;;
71955;SDS011;59829;50.562;6.258;2023-06-14T20:40:52;1.73;;;1.20;;
71955;SDS011;59829;50.562;6.258;2023-06-14T20:50:52;2.70;;;1.38;;
71955;SDS011;59829;50.562;6.258;2023-06-14T21:00:53;2.08;;;1.30;;
71955;SDS011;59829;50.562;6.258;2023-06-14T21:10:53;1.90;;;1.08;;
71955;SDS011;59829;50.562;6.258;2023-06-14T21:20:56;1.70;;;1.30;;
71955;SDS011;59829;50.562;6.258;2023-06-14T21:30:56;1.65;;;1.15;;
71955;SDS011;59829;50.562;6.258;2023-06-14T21:40:57;1.63;;;1.25;;
71955;SDS011;59829;50.562;6.258;2023-06-14T21:50:57;1.85;;;1.20;;
71955;SDS011;59829;50.562;6.258;2023-06-14T22:00:57;2.78;;;1.40;;
71955;SDS011;59829;50.562;6.258;2023-06-14T22:10:58;2.13;;;1.48;;
71955;SDS011;59829;50.562;6.258;2023-06-14T22:21:01;2.00;;;1.48;;
71955;SDS011;59829;50.562;6.258;2023-06-14T22:31:01;1.73;;;1.50;;
71955;SDS011;59829;50.562;6.258;2023-06-14T22:41:04;2.22;;;1.48;;
71955;SDS011;59829;50.562;6.258;2023-06-14T22:51:08;2.88;;;1.70;;
71955;SDS011;59829;50.562;6.258;2023-06-14T23:01:10;4.00;;;1.50;;
71955;SDS011;59829;50.562;6.258;2023-06-14T23:11:14;3.03;;;1.60;;
71955;SDS011;59829;50.562;6.258;2023-06-14T23:21:16;2.03;;;1.40;;
71955;SDS011;59829;50.562;6.258;2023-06-14T23:31:17;2.53;;;1.60;;
71955;SDS011;59829;50.562;6.258;2023-06-14T23:41:18;2.53;;;1.50;;
71955;SDS011;59829;50.562;6.258;2023-06-14T23:51:18;2.63;;;1.60;;
